sensor_id;sensor_type;location;lat;lon;timestamp;P1;durP1;ratioP1;P2;durP2;ratioP2
76094;SDS011;64821;13.710;100.604;2023-04-07T00:00:44;31.98;;;23.30;;
76094;SDS011;64821;13.710;100.604;2023-04-07T00:01:47;31.23;;;23.83;;
76094;SDS011;64821;13.710;100.604;2023-04-07T00:02:51;30.83;;;25.23;;
76094;SDS011;64821;13.710;100.604;2023-04-07T00:03:55;31.05;;;24.73;;
76094;SDS011;64821;13.710;100.604;2023-04-07T00:05:00;30.20;;;24.53;;
76094;SDS011;64821;13.710;100.604;2023-04-07T00:06:04;31.20;;;23.60;;
76094;SDS011;64821;13.710;100.604;2023-04-07T00:07:08;28.73;;;24.35;;
76094;SDS011;64821;13.710;100.604;2023-04-07T00:08:13;30.90;;;24.98;;
76094;SDS011;64821;13.710;100.604;2023-04-07T00:09:17;30.60;;;24.75;;
76094;SDS011;64821;13.710;100.604;2023-04-07T00:10:20;30.10;;;23.97;;
76094;SDS011;64821;13.710;100.604;2023-04-07T00:11:24;28.08;;;22.55;;
76094;SDS011;64821;13.710;100.604;2023-04-07T00:12:28;32.13;;;24.02;;
76094;SDS011;64821;13.710;100.604;2023-04-07T00:13:32;31.55;;;23.00;;
76094;SDS011;64821;13.710;100.604;2023-04-07T00:14:35;29.60;;;22.15;;
76094;SDS011;64821;13.710;100.604;2023-04-07T00:15:39;29.00;;;24.10;;
76094;SDS011;64821;13.710;100.604;2023-04-07T00:16:43;29.20;;;23.42;;
76094;SDS011;64821;13.710;100.604;2023-04-07T00:17:47;33.47;;;23.55;;
76094;SDS011;64821;13.710;100.604;2023-04-07T00:18:50;30.58;;;23.27;;
76094;SDS011;64821;13.710;100.604;2023-04-07T00:20:06;30.38;;;23.88;;
76094;SDS011;64821;13.710;100.604;2023-04-07T00:21:11;30.30;;;22.57;;
76094;SDS011;64821;13.710;100.604;2023-04-07T00:22:14;27.65;;;23.02;;
76094;SDS011;64821;13.710;100.604;2023-04-07T00:23:20;30.30;;;24.00;;
76094;SDS011;64821;13.710;100.604;2023-04-07T00:24:23;31.17;;;24.63;;
76094;SDS011;64821;13.710;100.604;2023-04-07T00:25:35;31.15;;;24.00;;
76094;SDS011;64821;13.710;100.604;2023-04-07T00:26:39;28.80;;;24.00;;
76094;SDS011;64821;13.710;100.604;2023-04-07T00:27:52;29.23;;;23.85;;
76094;SDS011;64821;13.710;100.604;2023-04-07T00:28:55;31.58;;;24.92;;
76094;SDS011;64821;13.710;100.604;2023-04-07T00:29:59;30.55;;;24.20;;
76094;SDS011;64821;13.710;100.604;2023-04-07T00:31:03;31.20;;;24.45;;
76094;SDS011;64821;13.710;100.604;2023-04-07T00:32:07;29.73;;;24.23;;
76094;SDS011;64821;13.710;100.604;2023-04-07T00:33:11;29.92;;;23.85;;
76094;SDS011;64821;13.710;100.604;2023-04-07T00:34:15;31.17;;;25.35;;
76094;SDS011;64821;13.710;100.604;2023-04-07T00:35:18;33.28;;;26.20;;
76094;SDS011;64821;13.710;100.604;2023-04-07T00:36:22;29.75;;;22.85;;
76094;SDS011;64821;13.710;100.604;2023-04-07T00:37:26;32.07;;;24.70;;
76094;SDS011;64821;13.710;100.604;2023-04-07T00:38:31;30.60;;;23.67;;
76094;SDS011;64821;13.710;100.604;2023-04-07T00:39:35;32.15;;;24.50;;
76094;SDS011;64821;13.710;100.604;2023-04-07T00:40:39;29.10;;;23.52;;
76094;SDS011;64821;13.710;100.604;2023-04-07T00:41:42;27.90;;;23.13;;
76094;SDS011;64821;13.710;100.604;2023-04-07T00:42:46;28.43;;;23.83;;
76094;SDS011;64821;13.710;100.604;2023-04-07T00:43:50;32.15;;;24.75;;
76094;SDS011;64821;13.710;100.604;2023-04-07T00:44:54;30.50;;;24.95;;
76094;SDS011;64821;13.710;100.604;2023-04-07T00:45:58;31.27;;;23.60;;
76094;SDS011;64821;13.710;100.604;2023-04-07T00:47:02;30.63;;;24.33;;
76094;SDS011;64821;13.710;100.604;2023-04-07T00:48:06;30.13;;;25.27;;
76094;SDS011;64821;13.710;100.604;2023-04-07T00:49:10;28.98;;;23.80;;
76094;SDS011;64821;13.710;100.604;2023-04-07T00:50:13;29.13;;;23.33;;
76094;SDS011;64821;13.710;100.604;2023-04-07T00:51:17;30.67;;;23.77;;
76094;SDS011;64821;13.710;100.604;2023-04-07T00:52:22;28.70;;;24.40;;
76094;SDS011;64821;13.710;100.604;2023-04-07T00:53:27;31.93;;;24.40;;
76094;SDS011;64821;13.710;100.604;2023-04-07T00:54:33;29.27;;;23.10;;
76094;SDS011;64821;13.710;100.604;2023-04-07T00:55:37;30.20;;;25.10;;
76094;SDS011;64821;13.710;100.604;2023-04-07T00:56:40;30.48;;;24.50;;
76094;SDS011;64821;13.710;100.604;2023-04-07T00:57:44;31.27;;;24.20;;
76094;SDS011;64821;13.710;100.604;2023-04-07T00:58:48;27.27;;;23.43;;
76094;SDS011;64821;13.710;100.604;2023-04-07T00:59:52;31.77;;;25.33;;
76094;SDS011;64821;13.710;100.604;2023-04-07T01:00:57;30.60;;;24.48;;
76094;SDS011;64821;13.710;100.604;2023-04-07T01:02:07;29.30;;;24.08;;
76094;SDS011;64821;13.710;100.604;2023-04-07T01:03:18;30.77;;;24.08;;
76094;SDS011;64821;13.710;100.604;2023-04-07T01:04:30;28.80;;;22.20;;
76094;SDS011;64821;13.710;100.604;2023-04-07T01:05:37;29.75;;;24.10;;
76094;SDS011;64821;13.710;100.604;2023-04-07T01:06:49;30.73;;;23.92;;
76094;SDS011;64821;13.710;100.604;2023-04-07T01:08:00;31.15;;;23.38;;
76094;SDS011;64821;13.710;100.604;2023-04-07T01:09:13;28.90;;;23.13;;
76094;SDS011;64821;13.710;100.604;2023-04-07T01:10:27;28.40;;;23.67;;
76094;SDS011;64821;13.710;100.604;2023-04-07T01:11:38;33.85;;;24.88;;
76094;SDS011;64821;13.710;100.604;2023-04-07T01:12:47;35.50;;;24.23;;
76094;SDS011;64821;13.710;100.604;2023-04-07T01:13:56;33.58;;;24.38;;
76094;SDS011;64821;13.710;100.604;2023-04-07T01:15:04;31.33;;;24.27;;
76094;SDS011;64821;13.710;100.604;2023-04-07T01:16:15;30.13;;;24.17;;
76094;SDS011;64821;13.710;100.604;2023-04-07T01:17:24;30.85;;;25.55;;
76094;SDS011;64821;13.710;100.604;2023-04-07T01:18:31;30.05;;;25.13;;
76094;SDS011;64821;13.710;100.604;2023-04-07T01:19:36;31.63;;;25.27;;
76094;SDS011;64821;13.710;100.604;2023-04-07T01:20:43;32.85;;;26.10;;
76094;SDS011;64821;13.710;100.604;2023-04-07T01:21:50;34.37;;;25.17;;
76094;SDS011;64821;13.710;100.604;2023-04-07T01:22:57;32.75;;;24.92;;
76094;SDS011;64821;13.710;100.604;2023-04-07T01:24:14;31.15;;;26.38;;
76094;SDS011;64821;13.710;100.604;2023-04-07T01:27:13;32.58;;;24.98;;
76094;SDS011;64821;13.710;100.604;2023-04-07T01:28:30;31.67;;;24.03;;
76094;SDS011;64821;13.710;100.604;2023-04-07T01:29:52;35.00;;;25.10;;
76094;SDS011;64821;13.710;100.604;2023-04-07T01:30:57;32.40;;;24.42;;
76094;SDS011;64821;13.710;100.604;2023-04-07T01:32:05;36.38;;;24.80;;
76094;SDS011;64821;13.710;100.604;2023-04-07T01:33:13;35.08;;;27.15;;
76094;SDS011;64821;13.710;100.604;2023-04-07T01:34:19;30.87;;;25.13;;
76094;SDS011;64821;13.710;100.604;2023-04-07T01:35:25;30.10;;;25.15;;
76094;SDS011;64821;13.710;100.604;2023-04-07T01:36:31;30.25;;;24.85;;
76094;SDS011;64821;13.710;100.604;2023-04-07T01:37:35;32.67;;;25.58;;
76094;SDS011;64821;13.710;100.604;2023-04-07T01:38:40;30.08;;;24.48;;
76094;SDS011;64821;13.710;100.604;2023-04-07T01:39:45;30.40;;;25.37;;
76094;SDS011;64821;13.710;100.604;2023-04-07T01:40:49;31.52;;;25.45;;
76094;SDS011;64821;13.710;100.604;2023-04-07T01:41:53;34.15;;;25.77;;
76094;SDS011;64821;13.710;100.604;2023-04-07T01:42:58;28.50;;;24.88;;
76094;SDS011;64821;13.710;100.604;2023-04-07T01:44:04;35.72;;;26.25;;
76094;SDS011;64821;13.710;100.604;2023-04-07T01:45:11;29.93;;;25.70;;
76094;SDS011;64821;13.710;100.604;2023-04-07T01:46:16;31.77;;;25.00;;
76094;SDS011;64821;13.710;100.604;2023-04-07T01:47:20;33.95;;;25.80;;
76094;SDS011;64821;13.710;100.604;2023-04-07T01:48:25;31.88;;;27.02;;
76094;SDS011;64821;13.710;100.604;2023-04-07T01:49:29;32.90;;;26.48;;
76094;SDS011;64821;13.710;100.604;2023-04-07T01:50:33;31.97;;;25.47;;
76094;SDS011;64821;13.710;100.604;2023-04-07T01:51:37;29.73;;;24.58;;
76094;SDS011;64821;13.710;100.604;2023-04-07T01:52:43;30.05;;;24.73;;
76094;SDS011;64821;13.710;100.604;2023-04-07T01:53:47;31.42;;;24.23;;
76094;SDS011;64821;13.710;100.604;2023-04-07T01:54:51;29.25;;;24.75;;
76094;SDS011;64821;13.710;100.604;2023-04-07T01:55:55;31.83;;;26.17;;
76094;SDS011;64821;13.710;100.604;2023-04-07T01:56:59;35.03;;;26.80;;
76094;SDS011;64821;13.710;100.604;2023-04-07T01:58:03;33.55;;;27.42;;
76094;SDS011;64821;13.710;100.604;2023-04-07T01:59:07;33.70;;;26.63;;
76094;SDS011;64821;13.710;100.604;2023-04-07T02:00:13;35.35;;;25.98;;
76094;SDS011;64821;13.710;100.604;2023-04-07T02:01:17;30.93;;;25.83;;
76094;SDS011;64821;13.710;100.604;2023-04-07T02:02:21;33.80;;;27.17;;
76094;SDS011;64821;13.710;100.604;2023-04-07T02:03:27;30.25;;;25.15;;
76094;SDS011;64821;13.710;100.604;2023-04-07T02:04:35;34.78;;;26.30;;
76094;SDS011;64821;13.710;100.604;2023-04-07T02:05:42;35.55;;;27.60;;
76094;SDS011;64821;13.710;100.604;2023-04-07T02:06:46;30.73;;;24.67;;
76094;SDS011;64821;13.710;100.604;2023-04-07T02:07:54;35.42;;;27.23;;
76094;SDS011;64821;13.710;100.604;2023-04-07T02:09:03;34.25;;;24.60;;
76094;SDS011;64821;13.710;100.604;2023-04-07T02:10:09;29.02;;;25.58;;
76094;SDS011;64821;13.710;100.604;2023-04-07T02:11:15;31.52;;;24.98;;
76094;SDS011;64821;13.710;100.604;2023-04-07T02:12:20;31.03;;;25.27;;
76094;SDS011;64821;13.710;100.604;2023-04-07T02:13:25;33.40;;;26.23;;
76094;SDS011;64821;13.710;100.604;2023-04-07T02:14:30;28.98;;;23.85;;
76094;SDS011;64821;13.710;100.604;2023-04-07T02:15:36;31.35;;;26.05;;
76094;SDS011;64821;13.710;100.604;2023-04-07T02:16:40;30.98;;;26.05;;
76094;SDS011;64821;13.710;100.604;2023-04-07T02:17:48;34.57;;;26.37;;
76094;SDS011;64821;13.710;100.604;2023-04-07T02:18:55;30.65;;;24.48;;
76094;SDS011;64821;13.710;100.604;2023-04-07T02:20:00;32.20;;;26.02;;
76094;SDS011;64821;13.710;100.604;2023-04-07T02:21:05;33.22;;;27.05;;
76094;SDS011;64821;13.710;100.604;2023-04-07T02:22:10;33.22;;;28.00;;
76094;SDS011;64821;13.710;100.604;2023-04-07T02:23:15;33.73;;;27.80;;
76094;SDS011;64821;13.710;100.604;2023-04-07T02:24:19;37.90;;;28.63;;
76094;SDS011;64821;13.710;100.604;2023-04-07T02:25:23;35.15;;;28.98;;
76094;SDS011;64821;13.710;100.604;2023-04-07T02:26:31;35.30;;;28.73;;
76094;SDS011;64821;13.710;100.604;2023-04-07T02:27:36;35.95;;;29.23;;
76094;SDS011;64821;13.710;100.604;2023-04-07T02:28:39;31.70;;;25.67;;
76094;SDS011;64821;13.710;100.604;2023-04-07T02:29:43;31.38;;;26.02;;
76094;SDS011;64821;13.710;100.604;2023-04-07T02:30:48;31.70;;;25.55;;
76094;SDS011;64821;13.710;100.604;2023-04-07T02:31:52;33.05;;;27.20;;
76094;SDS011;64821;13.710;100.604;2023-04-07T02:32:57;38.75;;;29.67;;
76094;SDS011;64821;13.710;100.604;2023-04-07T02:34:01;37.40;;;27.03;;
76094;SDS011;64821;13.710;100.604;2023-04-07T02:35:05;36.58;;;27.17;;
76094;SDS011;64821;13.710;100.604;2023-04-07T02:36:09;38.17;;;28.33;;
76094;SDS011;64821;13.710;100.604;2023-04-07T02:37:13;33.67;;;25.88;;
76094;SDS011;64821;13.710;100.604;2023-04-07T02:38:16;38.28;;;26.10;;
76094;SDS011;64821;13.710;100.604;2023-04-07T02:39:20;35.20;;;28.87;;
76094;SDS011;64821;13.710;100.604;2023-04-07T02:40:24;33.80;;;26.52;;
76094;SDS011;64821;13.710;100.604;2023-04-07T02:41:27;31.45;;;25.73;;
76094;SDS011;64821;13.710;100.604;2023-04-07T02:42:31;33.13;;;26.08;;
76094;SDS011;64821;13.710;100.604;2023-04-07T02:43:35;30.77;;;25.85;;
76094;SDS011;64821;13.710;100.604;2023-04-07T02:44:39;34.43;;;26.50;;
76094;SDS011;64821;13.710;100.604;2023-04-07T02:45:42;33.35;;;23.83;;
76094;SDS011;64821;13.710;100.604;2023-04-07T02:46:48;31.50;;;25.52;;
76094;SDS011;64821;13.710;100.604;2023-04-07T02:47:52;35.30;;;25.77;;
76094;SDS011;64821;13.710;100.604;2023-04-07T02:48:55;34.28;;;26.15;;
76094;SDS011;64821;13.710;100.604;2023-04-07T02:49:59;28.67;;;24.40;;
76094;SDS011;64821;13.710;100.604;2023-04-07T02:51:03;32.05;;;25.98;;
76094;SDS011;64821;13.710;100.604;2023-04-07T02:52:07;30.10;;;25.13;;
76094;SDS011;64821;13.710;100.604;2023-04-07T02:53:13;31.10;;;24.27;;
76094;SDS011;64821;13.710;100.604;2023-04-07T02:54:17;32.38;;;26.42;;
76094;SDS011;64821;13.710;100.604;2023-04-07T02:55:20;33.77;;;25.20;;
76094;SDS011;64821;13.710;100.604;2023-04-07T02:56:24;33.40;;;26.40;;
76094;SDS011;64821;13.710;100.604;2023-04-07T02:57:28;33.38;;;26.58;;
76094;SDS011;64821;13.710;100.604;2023-04-07T02:58:31;30.40;;;25.23;;
76094;SDS011;64821;13.710;100.604;2023-04-07T02:59:35;33.72;;;27.63;;
76094;SDS011;64821;13.710;100.604;2023-04-07T03:00:39;31.53;;;25.87;;
76094;SDS011;64821;13.710;100.604;2023-04-07T03:01:43;33.95;;;25.95;;
76094;SDS011;64821;13.710;100.604;2023-04-07T03:02:48;32.05;;;25.98;;
76094;SDS011;64821;13.710;100.604;2023-04-07T03:03:52;36.80;;;26.77;;
76094;SDS011;64821;13.710;100.604;2023-04-07T03:04:57;33.67;;;27.80;;
76094;SDS011;64821;13.710;100.604;2023-04-07T03:06:01;33.10;;;25.50;;
76094;SDS011;64821;13.710;100.604;2023-04-07T03:07:04;32.85;;;25.42;;
76094;SDS011;64821;13.710;100.604;2023-04-07T03:08:08;31.38;;;24.67;;
76094;SDS011;64821;13.710;100.604;2023-04-07T03:09:13;31.15;;;24.30;;
76094;SDS011;64821;13.710;100.604;2023-04-07T03:10:17;30.25;;;24.55;;
76094;SDS011;64821;13.710;100.604;2023-04-07T03:11:21;33.17;;;26.77;;
76094;SDS011;64821;13.710;100.604;2023-04-07T03:12:25;34.83;;;25.08;;
76094;SDS011;64821;13.710;100.604;2023-04-07T03:13:28;33.75;;;25.77;;
76094;SDS011;64821;13.710;100.604;2023-04-07T03:14:32;30.10;;;24.88;;
76094;SDS011;64821;13.710;100.604;2023-04-07T03:15:36;32.72;;;25.55;;
76094;SDS011;64821;13.710;100.604;2023-04-07T03:16:40;32.80;;;25.50;;
76094;SDS011;64821;13.710;100.604;2023-04-07T03:17:43;29.75;;;24.27;;
76094;SDS011;64821;13.710;100.604;2023-04-07T03:18:49;27.90;;;24.10;;
76094;SDS011;64821;13.710;100.604;2023-04-07T03:19:52;29.23;;;23.13;;
76094;SDS011;64821;13.710;100.604;2023-04-07T03:20:56;27.67;;;23.45;;
76094;SDS011;64821;13.710;100.604;2023-04-07T03:22:00;29.70;;;23.43;;
76094;SDS011;64821;13.710;100.604;2023-04-07T03:23:04;28.77;;;24.30;;
76094;SDS011;64821;13.710;100.604;2023-04-07T03:24:07;30.85;;;25.05;;
76094;SDS011;64821;13.710;100.604;2023-04-07T03:25:11;30.58;;;24.45;;
76094;SDS011;64821;13.710;100.604;2023-04-07T03:26:15;30.05;;;23.73;;
76094;SDS011;64821;13.710;100.604;2023-04-07T03:27:19;30.53;;;24.13;;
76094;SDS011;64821;13.710;100.604;2023-04-07T03:28:23;30.15;;;24.52;;
76094;SDS011;64821;13.710;100.604;2023-04-07T03:29:26;31.85;;;25.42;;
76094;SDS011;64821;13.710;100.604;2023-04-07T03:30:30;30.33;;;22.83;;
76094;SDS011;64821;13.710;100.604;2023-04-07T03:31:34;29.35;;;23.17;;
76094;SDS011;64821;13.710;100.604;2023-04-07T03:32:37;30.63;;;24.07;;
76094;SDS011;64821;13.710;100.604;2023-04-07T03:33:41;32.00;;;24.13;;
76094;SDS011;64821;13.710;100.604;2023-04-07T03:34:47;29.15;;;23.80;;
76094;SDS011;64821;13.710;100.604;2023-04-07T03:35:50;29.08;;;22.67;;
76094;SDS011;64821;13.710;100.604;2023-04-07T03:36:54;29.02;;;25.20;;
76094;SDS011;64821;13.710;100.604;2023-04-07T03:37:58;28.03;;;22.60;;
76094;SDS011;64821;13.710;100.604;2023-04-07T03:39:02;29.90;;;22.65;;
76094;SDS011;64821;13.710;100.604;2023-04-07T03:40:06;27.52;;;22.05;;
76094;SDS011;64821;13.710;100.604;2023-04-07T03:41:10;30.17;;;22.98;;
76094;SDS011;64821;13.710;100.604;2023-04-07T03:42:14;27.58;;;21.58;;
76094;SDS011;64821;13.710;100.604;2023-04-07T03:43:18;30.07;;;21.37;;
76094;SDS011;64821;13.710;100.604;2023-04-07T03:44:21;26.63;;;23.00;;
76094;SDS011;64821;13.710;100.604;2023-04-07T03:45:25;28.95;;;23.23;;
76094;SDS011;64821;13.710;100.604;2023-04-07T03:46:29;28.02;;;21.98;;
76094;SDS011;64821;13.710;100.604;2023-04-07T03:47:33;27.83;;;22.05;;
76094;SDS011;64821;13.710;100.604;2023-04-07T03:48:37;28.67;;;22.57;;
76094;SDS011;64821;13.710;100.604;2023-04-07T03:49:41;25.55;;;21.70;;
76094;SDS011;64821;13.710;100.604;2023-04-07T03:50:46;27.52;;;20.95;;
76094;SDS011;64821;13.710;100.604;2023-04-07T03:51:50;28.25;;;21.65;;
76094;SDS011;64821;13.710;100.604;2023-04-07T03:52:53;27.13;;;20.50;;
76094;SDS011;64821;13.710;100.604;2023-04-07T03:53:57;25.23;;;20.93;;
76094;SDS011;64821;13.710;100.604;2023-04-07T03:55:01;26.13;;;20.38;;
76094;SDS011;64821;13.710;100.604;2023-04-07T03:56:05;23.58;;;19.75;;
76094;SDS011;64821;13.710;100.604;2023-04-07T03:57:09;29.48;;;21.38;;
76094;SDS011;64821;13.710;100.604;2023-04-07T03:58:13;27.88;;;20.20;;
76094;SDS011;64821;13.710;100.604;2023-04-07T03:59:17;25.30;;;20.47;;
76094;SDS011;64821;13.710;100.604;2023-04-07T04:00:20;26.60;;;21.13;;
76094;SDS011;64821;13.710;100.604;2023-04-07T04:01:24;29.10;;;21.58;;
76094;SDS011;64821;13.710;100.604;2023-04-07T04:02:28;24.48;;;19.85;;
76094;SDS011;64821;13.710;100.604;2023-04-07T04:03:32;26.38;;;19.80;;
76094;SDS011;64821;13.710;100.604;2023-04-07T04:04:36;24.97;;;20.63;;
76094;SDS011;64821;13.710;100.604;2023-04-07T04:05:40;25.70;;;19.95;;
76094;SDS011;64821;13.710;100.604;2023-04-07T04:06:45;28.15;;;20.90;;
76094;SDS011;64821;13.710;100.604;2023-04-07T04:07:49;24.33;;;19.95;;
76094;SDS011;64821;13.710;100.604;2023-04-07T04:08:53;25.08;;;20.20;;
76094;SDS011;64821;13.710;100.604;2023-04-07T04:09:57;26.27;;;20.37;;
76094;SDS011;64821;13.710;100.604;2023-04-07T04:11:00;28.25;;;20.85;;
76094;SDS011;64821;13.710;100.604;2023-04-07T04:12:04;25.65;;;20.90;;
76094;SDS011;64821;13.710;100.604;2023-04-07T04:13:08;30.52;;;21.77;;
76094;SDS011;64821;13.710;100.604;2023-04-07T04:14:11;28.67;;;21.17;;
76094;SDS011;64821;13.710;100.604;2023-04-07T04:15:15;28.10;;;22.13;;
76094;SDS011;64821;13.710;100.604;2023-04-07T04:16:19;29.15;;;22.05;;
76094;SDS011;64821;13.710;100.604;2023-04-07T04:17:23;27.17;;;21.00;;
76094;SDS011;64821;13.710;100.604;2023-04-07T04:18:27;31.10;;;21.67;;
76094;SDS011;64821;13.710;100.604;2023-04-07T04:19:31;32.42;;;22.73;;
76094;SDS011;64821;13.710;100.604;2023-04-07T04:20:34;29.50;;;23.43;;
76094;SDS011;64821;13.710;100.604;2023-04-07T04:21:38;29.35;;;22.23;;
76094;SDS011;64821;13.710;100.604;2023-04-07T04:22:43;29.58;;;25.30;;
76094;SDS011;64821;13.710;100.604;2023-04-07T04:23:47;28.23;;;22.48;;
76094;SDS011;64821;13.710;100.604;2023-04-07T04:24:51;35.67;;;28.02;;
76094;SDS011;64821;13.710;100.604;2023-04-07T04:25:55;38.13;;;27.43;;
76094;SDS011;64821;13.710;100.604;2023-04-07T04:26:58;32.25;;;24.67;;
76094;SDS011;64821;13.710;100.604;2023-04-07T04:28:02;32.25;;;26.10;;
76094;SDS011;64821;13.710;100.604;2023-04-07T04:29:06;38.40;;;27.88;;
76094;SDS011;64821;13.710;100.604;2023-04-07T04:30:10;36.95;;;27.00;;
76094;SDS011;64821;13.710;100.604;2023-04-07T04:31:14;38.33;;;28.87;;
76094;SDS011;64821;13.710;100.604;2023-04-07T04:32:17;39.30;;;30.65;;
76094;SDS011;64821;13.710;100.604;2023-04-07T04:33:21;38.65;;;29.30;;
76094;SDS011;64821;13.710;100.604;2023-04-07T04:34:25;36.42;;;26.67;;
76094;SDS011;64821;13.710;100.604;2023-04-07T04:35:29;37.42;;;28.52;;
76094;SDS011;64821;13.710;100.604;2023-04-07T04:36:32;40.50;;;28.93;;
76094;SDS011;64821;13.710;100.604;2023-04-07T04:37:39;37.88;;;29.10;;
76094;SDS011;64821;13.710;100.604;2023-04-07T04:38:44;42.10;;;27.60;;
76094;SDS011;64821;13.710;100.604;2023-04-07T04:39:48;38.53;;;29.08;;
76094;SDS011;64821;13.710;100.604;2023-04-07T04:40:52;41.83;;;27.08;;
76094;SDS011;64821;13.710;100.604;2023-04-07T04:41:56;34.67;;;26.33;;
76094;SDS011;64821;13.710;100.604;2023-04-07T04:42:59;35.47;;;24.95;;
76094;SDS011;64821;13.710;100.604;2023-04-07T04:44:03;34.90;;;25.10;;
76094;SDS011;64821;13.710;100.604;2023-04-07T04:45:08;37.50;;;25.33;;
76094;SDS011;64821;13.710;100.604;2023-04-07T04:46:12;32.72;;;24.30;;
76094;SDS011;64821;13.710;100.604;2023-04-07T04:47:16;32.83;;;23.87;;
76094;SDS011;64821;13.710;100.604;2023-04-07T04:48:20;33.03;;;23.70;;
76094;SDS011;64821;13.710;100.604;2023-04-07T04:49:24;34.55;;;25.05;;
76094;SDS011;64821;13.710;100.604;2023-04-07T04:50:27;32.20;;;23.70;;
76094;SDS011;64821;13.710;100.604;2023-04-07T04:51:31;29.90;;;22.88;;
76094;SDS011;64821;13.710;100.604;2023-04-07T04:52:35;29.20;;;22.33;;
76094;SDS011;64821;13.710;100.604;2023-04-07T04:53:39;33.08;;;24.23;;
76094;SDS011;64821;13.710;100.604;2023-04-07T04:54:44;32.38;;;23.45;;
76094;SDS011;64821;13.710;100.604;2023-04-07T04:55:48;31.05;;;23.65;;
76094;SDS011;64821;13.710;100.604;2023-04-07T04:56:52;33.15;;;24.73;;
76094;SDS011;64821;13.710;100.604;2023-04-07T04:57:55;31.70;;;24.30;;
76094;SDS011;64821;13.710;100.604;2023-04-07T04:58:59;29.42;;;22.83;;
76094;SDS011;64821;13.710;100.604;2023-04-07T05:00:04;32.50;;;23.75;;
76094;SDS011;64821;13.710;100.604;2023-04-07T05:01:09;30.42;;;23.42;;
76094;SDS011;64821;13.710;100.604;2023-04-07T05:02:13;28.55;;;22.75;;
76094;SDS011;64821;13.710;100.604;2023-04-07T05:03:17;33.07;;;21.20;;
76094;SDS011;64821;13.710;100.604;2023-04-07T05:04:21;28.02;;;20.83;;
76094;SDS011;64821;13.710;100.604;2023-04-07T05:05:25;28.20;;;20.85;;
76094;SDS011;64821;13.710;100.604;2023-04-07T05:06:29;31.38;;;20.08;;
76094;SDS011;64821;13.710;100.604;2023-04-07T05:07:33;29.02;;;21.50;;
76094;SDS011;64821;13.710;100.604;2023-04-07T05:08:36;27.50;;;18.87;;
76094;SDS011;64821;13.710;100.604;2023-04-07T05:09:40;26.20;;;20.02;;
76094;SDS011;64821;13.710;100.604;2023-04-07T05:10:47;26.17;;;20.27;;
76094;SDS011;64821;13.710;100.604;2023-04-07T05:11:50;25.05;;;18.02;;
76094;SDS011;64821;13.710;100.604;2023-04-07T05:12:54;22.10;;;16.00;;
76094;SDS011;64821;13.710;100.604;2023-04-07T05:13:58;23.50;;;16.40;;
76094;SDS011;64821;13.710;100.604;2023-04-07T05:15:02;20.95;;;15.45;;
76094;SDS011;64821;13.710;100.604;2023-04-07T05:16:06;23.10;;;15.05;;
76094;SDS011;64821;13.710;100.604;2023-04-07T05:17:10;21.92;;;15.63;;
76094;SDS011;64821;13.710;100.604;2023-04-07T05:18:14;22.83;;;15.57;;
76094;SDS011;64821;13.710;100.604;2023-04-07T05:19:17;20.00;;;14.27;;
76094;SDS011;64821;13.710;100.604;2023-04-07T05:20:21;19.70;;;13.88;;
76094;SDS011;64821;13.710;100.604;2023-04-07T05:21:25;21.90;;;14.52;;
76094;SDS011;64821;13.710;100.604;2023-04-07T05:23:32;20.70;;;13.82;;
76094;SDS011;64821;13.710;100.604;2023-04-07T05:24:37;19.70;;;13.13;;
76094;SDS011;64821;13.710;100.604;2023-04-07T05:25:40;19.15;;;13.10;;
76094;SDS011;64821;13.710;100.604;2023-04-07T05:26:46;18.33;;;13.02;;
76094;SDS011;64821;13.710;100.604;2023-04-07T05:27:49;18.95;;;13.68;;
76094;SDS011;64821;13.710;100.604;2023-04-07T05:28:53;18.45;;;13.00;;
76094;SDS011;64821;13.710;100.604;2023-04-07T05:29:57;21.70;;;12.83;;
76094;SDS011;64821;13.710;100.604;2023-04-07T05:31:01;20.27;;;13.50;;
76094;SDS011;64821;13.710;100.604;2023-04-07T05:32:07;18.05;;;13.30;;
76094;SDS011;64821;13.710;100.604;2023-04-07T05:33:11;18.08;;;12.40;;
76094;SDS011;64821;13.710;100.604;2023-04-07T05:34:15;21.10;;;11.90;;
76094;SDS011;64821;13.710;100.604;2023-04-07T05:35:18;17.00;;;12.37;;
76094;SDS011;64821;13.710;100.604;2023-04-07T05:36:22;18.98;;;13.07;;
76094;SDS011;64821;13.710;100.604;2023-04-07T05:37:26;17.92;;;11.85;;
76094;SDS011;64821;13.710;100.604;2023-04-07T05:38:30;19.58;;;12.65;;
76094;SDS011;64821;13.710;100.604;2023-04-07T05:39:33;20.58;;;12.50;;
76094;SDS011;64821;13.710;100.604;2023-04-07T05:40:38;22.30;;;12.87;;
76094;SDS011;64821;13.710;100.604;2023-04-07T05:41:42;20.80;;;12.85;;
76094;SDS011;64821;13.710;100.604;2023-04-07T05:42:48;23.08;;;12.45;;
76094;SDS011;64821;13.710;100.604;2023-04-07T05:43:51;21.48;;;13.43;;
76094;SDS011;64821;13.710;100.604;2023-04-07T05:44:55;22.33;;;13.95;;
76094;SDS011;64821;13.710;100.604;2023-04-07T05:45:59;22.17;;;13.23;;
76094;SDS011;64821;13.710;100.604;2023-04-07T05:47:03;19.38;;;12.75;;
76094;SDS011;64821;13.710;100.604;2023-04-07T05:48:06;20.08;;;12.18;;
76094;SDS011;64821;13.710;100.604;2023-04-07T05:49:10;20.65;;;13.38;;
76094;SDS011;64821;13.710;100.604;2023-04-07T05:50:19;19.42;;;13.48;;
76094;SDS011;64821;13.710;100.604;2023-04-07T05:51:23;24.27;;;13.43;;
76094;SDS011;64821;13.710;100.604;2023-04-07T05:52:26;20.73;;;13.52;;
76094;SDS011;64821;13.710;100.604;2023-04-07T05:53:30;26.23;;;13.70;;
76094;SDS011;64821;13.710;100.604;2023-04-07T05:54:34;21.40;;;13.45;;
76094;SDS011;64821;13.710;100.604;2023-04-07T05:55:38;23.73;;;13.65;;
76094;SDS011;64821;13.710;100.604;2023-04-07T05:56:53;19.23;;;13.50;;
76094;SDS011;64821;13.710;100.604;2023-04-07T05:57:58;19.00;;;13.73;;
76094;SDS011;64821;13.710;100.604;2023-04-07T05:59:02;21.48;;;14.35;;
76094;SDS011;64821;13.710;100.604;2023-04-07T06:00:07;21.98;;;14.02;;
76094;SDS011;64821;13.710;100.604;2023-04-07T06:01:12;22.00;;;13.68;;
76094;SDS011;64821;13.710;100.604;2023-04-07T06:02:15;20.67;;;13.23;;
76094;SDS011;64821;13.710;100.604;2023-04-07T06:03:20;21.17;;;13.23;;
76094;SDS011;64821;13.710;100.604;2023-04-07T06:04:23;25.25;;;13.45;;
76094;SDS011;64821;13.710;100.604;2023-04-07T06:05:27;21.00;;;13.73;;
76094;SDS011;64821;13.710;100.604;2023-04-07T06:06:31;18.90;;;12.18;;
76094;SDS011;64821;13.710;100.604;2023-04-07T06:07:35;22.00;;;12.30;;
76094;SDS011;64821;13.710;100.604;2023-04-07T06:08:38;19.35;;;12.43;;
76094;SDS011;64821;13.710;100.604;2023-04-07T06:09:42;22.60;;;12.38;;
76094;SDS011;64821;13.710;100.604;2023-04-07T06:10:46;19.67;;;12.23;;